Time;durP1;ratioP1;P1;durP2;ratioP2;P2;SDS_P1;SDS_P2;PMS_P1;PMS_P2;Temp;Humidity;BMP_temperature;BMP_pressure;BME280_temperature;BME280_humidity;BME280_pressure;Samples;Min_cycle;Max_cycle;Signal;HPM_P1;HPM_P2
2021/08/27 00:01:22;;;;;;;8.23;5.45;;;;;;;17.23;89.66;99898.16;5108064;28;20024;-62
2021/08/27 00:03:47;;;;;;;8.80;5.97;;;;;;;17.24;88.24;99897.13;5089729;28;20106;-62
2021/08/27 00:06:13;;;;;;;11.98;6.57;;;;;;;17.22;88.64;99895.63;5108002;28;20015;-62
2021/08/27 00:08:38;;;;;;;11.57;5.85;;;;;;;17.21;88.73;99904.78;5107841;28;20410;-62
2021/08/27 00:11:04;;;;;;;9.07;5.63;;;;;;;17.20;89.59;99898.53;5107915;28;20077;-62
2021/08/27 00:13:30;;;;;;;9.10;5.57;;;;;;;17.20;90.72;99897.69;5107983;28;20031;-62
2021/08/27 00:15:55;;;;;;;8.77;5.82;;;;;;;17.25;90.35;99903.38;5107993;28;20295;-63
2021/08/27 00:18:20;;;;;;;12.13;5.82;;;;;;;17.21;89.94;99916.47;5107902;28;20073;-61
2021/08/27 00:20:46;;;;;;;9.25;5.47;;;;;;;17.27;89.47;99915.72;5107814;28;20016;-62
2021/08/27 00:23:11;;;;;;;10.38;6.10;;;;;;;17.28;90.03;99909.25;5109098;28;20072;-62
2021/08/27 00:25:37;;;;;;;9.15;5.78;;;;;;;17.25;89.90;99909.63;5111873;28;20100;-62
2021/08/27 00:28:05;;;;;;;13.45;6.32;;;;;;;17.19;90.20;99899.53;5112070;28;20075;-62
2021/08/27 00:30:31;;;;;;;11.35;6.25;;;;;;;17.18;90.22;99892.44;5112035;28;20038;-62
2021/08/27 00:32:56;;;;;;;10.32;6.25;;;;;;;17.19;90.63;99885.16;5111914;28;20112;-62
2021/08/27 00:35:22;;;;;;;10.65;6.90;;;;;;;17.23;91.68;99883.75;5112160;28;20019;-62
2021/08/27 00:37:47;;;;;;;10.50;6.72;;;;;;;17.21;91.70;99877.66;5111625;28;20023;-62
2021/08/27 00:40:13;;;;;;;11.38;6.57;;;;;;;17.19;91.29;99879.75;5111938;28;20269;-62
2021/08/27 00:42:38;;;;;;;9.75;6.00;;;;;;;17.13;91.30;99862.38;5111505;28;20020;-61
2021/08/27 00:45:04;;;;;;;9.50;6.50;;;;;;;17.10;90.59;99856.47;5111664;28;20102;-61
2021/08/27 00:47:30;;;;;;;13.73;6.60;;;;;;;17.11;92.33;99860.84;5111374;28;20051;-61
2021/08/27 00:49:55;;;;;;;12.05;7.30;;;;;;;17.06;92.56;99850.56;5111643;28;20032;-61
2021/08/27 00:52:21;;;;;;;9.45;6.40;;;;;;;17.06;92.31;99852.47;5111610;28;20027;-61
2021/08/27 00:54:51;;;;;;;10.18;6.68;;;;;;;17.04;93.03;99846.38;5111436;28;20031;-63
2021/08/27 00:57:17;;;;;;;12.15;7.13;;;;;;;16.99;93.68;99837.97;5111550;28;20399;-63
2021/08/27 00:59:42;;;;;;;11.38;7.30;;;;;;;16.96;94.79;99827.53;5111468;28;20035;-62
2021/08/27 01:02:08;;;;;;;10.95;6.63;;;;;;;16.94;95.54;99813.31;5111103;28;20023;-62
2021/08/27 01:04:35;;;;;;;10.40;7.25;;;;;;;16.88;95.56;99786.97;5111557;28;20132;-62
2021/08/27 01:07:05;;;;;;;10.75;7.10;;;;;;;16.98;95.71;99798.34;5111513;28;20020;-63
2021/08/27 01:09:46;;;;;;;12.85;7.43;;;;;;;17.00;96.08;99799.88;5111364;28;20122;-63
2021/08/27 01:12:18;;;;;;;11.88;6.65;;;;;;;17.00;96.37;99801.72;5111267;28;20085;-63
2021/08/27 01:14:52;;;;;;;12.45;7.22;;;;;;;16.99;96.28;99816.31;5110941;28;20081;-63
2021/08/27 01:17:27;;;;;;;12.13;7.60;;;;;;;16.99;97.08;99846.94;5110841;28;20035;-62
2021/08/27 01:20:20;;;;;;;10.75;7.40;;;;;;;16.98;97.49;99841.69;5111302;28;20317;-62
2021/08/27 01:23:15;;;;;;;11.20;7.60;;;;;;;16.97;98.00;99834.59;5110842;28;20023;-62
2021/08/27 01:25:47;;;;;;;15.20;7.32;;;;;;;17.00;98.72;99828.81;5110910;28;20047;-62
2021/08/27 01:28:14;;;;;;;13.00;7.20;;;;;;;16.98;97.62;99849.81;5110930;28;20471;-62
2021/08/27 01:30:57;;;;;;;10.88;7.32;;;;;;;17.01;96.08;99860.28;5110574;28;20031;-62
2021/08/27 01:33:24;;;;;;;11.23;7.63;;;;;;;16.93;95.86;99861.22;5110812;28;20399;-62
2021/08/27 01:35:55;;;;;;;15.05;8.30;;;;;;;16.91;96.59;99871.41;5110553;28;20065;-62
2021/08/27 01:38:26;;;;;;;11.48;7.88;;;;;;;16.83;97.39;99871.50;5111027;28;20110;-62
2021/08/27 01:40:54;;;;;;;11.05;7.80;;;;;;;16.82;97.18;99871.69;5110729;28;20043;-62
2021/08/27 01:43:23;;;;;;;10.40;7.47;;;;;;;16.69;97.55;99853.38;5110612;28;20394;-62
2021/08/27 01:45:49;;;;;;;10.98;7.90;;;;;;;16.66;98.02;99847.47;5110396;28;20019;-62
2021/08/27 01:48:15;;;;;;;11.45;7.93;;;;;;;16.77;98.64;99852.44;5110368;28;20398;-62
2021/08/27 01:50:42;;;;;;;10.95;7.95;;;;;;;16.68;99.30;99835.44;5092027;28;20024;-62
2021/08/27 01:53:08;;;;;;;11.77;7.22;;;;;;;16.76;99.26;99850.75;5110562;28;20028;-62
2021/08/27 01:55:34;;;;;;;11.02;7.07;;;;;;;16.74;99.43;99845.53;5110410;28;20055;-62
2021/08/27 01:58:05;;;;;;;10.57;7.88;;;;;;;16.80;98.91;99843.97;5109962;28;20135;-62
2021/08/27 02:00:31;;;;;;;12.75;7.28;;;;;;;16.78;98.05;99841.44;5110158;28;20027;-62
2021/08/27 02:02:59;;;;;;;11.15;6.57;;;;;;;16.76;98.16;99839.91;5110001;28;20032;-62
2021/08/27 02:05:26;;;;;;;11.43;7.47;;;;;;;16.85;96.67;99852.34;5110419;28;20019;-62
2021/08/27 02:07:53;;;;;;;10.63;7.15;;;;;;;16.74;95.87;99832.00;5110060;28;20027;-62
2021/08/27 02:10:18;;;;;;;11.75;7.22;;;;;;;16.81;96.22;99854.59;5091694;28;20122;-62
2021/08/27 02:12:44;;;;;;;11.07;7.15;;;;;;;16.80;96.06;99858.31;5109834;28;20107;-62
2021/08/27 02:15:10;;;;;;;9.07;6.72;;;;;;;16.82;95.23;99860.84;5110153;28;20334;-62
2021/08/27 02:17:36;;;;;;;9.30;6.30;;;;;;;16.80;95.09;99857.50;5109964;28;20026;-62
2021/08/27 02:20:02;;;;;;;9.25;6.22;;;;;;;16.79;94.52;99858.50;5110093;28;20024;-62
2021/08/27 02:22:31;;;;;;;9.77;5.90;;;;;;;16.68;94.86;99858.97;5109912;28;20047;-63
2021/08/27 02:25:02;;;;;;;8.73;5.63;;;;;;;16.65;95.72;99853.91;5110124;28;20073;-63
2021/08/27 02:27:30;;;;;;;9.02;5.78;;;;;;;16.61;95.70;99855.31;5109594;28;20015;-63
2021/08/27 02:29:58;;;;;;;8.05;4.72;;;;;;;16.62;94.89;99854.28;5110107;28;20508;-63
2021/08/27 02:32:26;;;;;;;8.13;4.93;;;;;;;16.54;94.64;99849.78;5109704;28;20031;-63
2021/08/27 02:34:52;;;;;;;7.07;3.97;;;;;;;16.56;94.80;99853.16;5109312;28;20106;-63
2021/08/27 02:37:22;;;;;;;5.30;4.28;;;;;;;16.60;94.37;99859.06;5109580;28;20031;-63
2021/08/27 02:39:47;;;;;;;7.30;4.50;;;;;;;16.62;94.27;99855.13;5109204;28;20364;-62
2021/08/27 02:42:13;;;;;;;7.10;4.82;;;;;;;16.60;93.38;99840.94;5109313;28;20049;-63
2021/08/27 02:44:39;;;;;;;5.88;4.25;;;;;;;16.60;93.77;99842.81;5109163;28;20020;-64
2021/08/27 02:47:04;;;;;;;6.68;4.35;;;;;;;16.47;94.50;99829.06;5108340;28;20392;-64
2021/08/27 02:49:30;;;;;;;7.70;4.70;;;;;;;16.55;95.40;99853.34;5109292;28;20487;-62
2021/08/27 02:52:06;;;;;;;8.32;4.28;;;;;;;16.49;96.41;99857.63;5109469;28;20047;-63
2021/08/27 02:54:50;;;;;;;6.03;4.13;;;;;;;16.42;96.36;99844.97;5109091;28;20073;-63
2021/08/27 02:57:17;;;;;;;6.97;4.17;;;;;;;16.45;97.16;99844.66;5109258;28;20051;-63
2021/08/27 02:59:43;;;;;;;9.93;4.50;;;;;;;16.44;97.81;99826.72;5109140;28;20794;-62
2021/08/27 03:02:15;;;;;;;6.43;4.30;;;;;;;16.44;97.64;99818.59;5090653;28;20080;-63
2021/08/27 03:04:55;;;;;;;6.05;4.15;;;;;;;16.45;98.57;99806.75;5108897;28;20084;-62
2021/08/27 03:07:24;;;;;;;7.30;4.13;;;;;;;16.49;98.54;99799.94;5090743;28;20036;-63
2021/08/27 03:10:16;;;;;;;6.70;4.47;;;;;;;16.51;98.34;99797.91;5108950;28;20066;-62
2021/08/27 03:12:52;;;;;;;5.90;4.55;;;;;;;16.53;97.94;99810.22;5108844;28;20123;-62
2021/08/27 03:15:27;;;;;;;7.13;4.85;;;;;;;16.54;98.43;99821.88;5108646;28;20441;-62
2021/08/27 03:17:58;;;;;;;6.63;4.28;;;;;;;16.53;98.43;99834.56;5108712;28;20023;-62
2021/08/27 03:20:39;;;;;;;7.82;4.75;;;;;;;16.51;97.42;99844.72;5108489;28;20077;-63
2021/08/27 03:23:10;;;;;;;6.15;4.05;;;;;;;16.45;97.64;99856.31;5105472;28;20043;-62
2021/08/27 03:25:42;;;;;;;7.07;3.92;;;;;;;16.44;97.25;99870.03;5106471;28;20047;-62
2021/08/27 03:28:13;;;;;;;6.85;4.72;;;;;;;16.41;97.85;99892.03;5106635;28;20456;-62
2021/08/27 03:30:40;;;;;;;8.27;4.68;;;;;;;16.38;97.11;99892.38;5107902;28;20074;-62
2021/08/27 03:33:09;;;;;;;8.13;4.75;;;;;;;16.32;97.06;99899.38;5087594;28;20047;-62
2021/08/27 03:35:34;;;;;;;6.53;4.40;;;;;;;16.21;97.08;99894.38;5107985;28;20025;-62
2021/08/27 03:38:01;;;;;;;7.70;4.68;;;;;;;16.24;96.68;99909.41;5108145;28;20035;-63
2021/08/27 03:40:28;;;;;;;8.48;5.00;;;;;;;16.19;97.22;99893.72;5107958;28;20444;-63
2021/08/27 03:42:57;;;;;;;7.90;4.63;;;;;;;16.19;97.31;99898.28;5107133;28;20033;-62
2021/08/27 03:45:24;;;;;;;8.23;4.65;;;;;;;16.12;97.45;99889.22;5104464;28;20033;-62
2021/08/27 03:47:51;;;;;;;8.85;5.57;;;;;;;16.12;98.47;99881.91;5105793;28;20039;-63
2021/08/27 03:50:16;;;;;;;7.13;4.75;;;;;;;16.14;98.97;99871.78;5105897;28;20023;-62
2021/08/27 03:52:44;;;;;;;7.03;4.60;;;;;;;16.02;99.65;99839.91;5106747;28;20031;-62
2021/08/27 03:55:13;;;;;;;8.40;5.07;;;;;;;16.16;99.97;99842.69;5088089;28;20028;-62
2021/08/27 03:57:38;;;;;;;15.63;5.53;;;;;;;16.17;99.81;99835.38;5104852;28;20022;-61
2021/08/27 04:00:06;;;;;;;8.65;5.10;;;;;;;16.19;99.82;99846.88;5107966;28;20020;-62
2021/08/27 04:02:32;;;;;;;9.05;4.75;;;;;;;16.21;99.97;99847.50;5108173;28;20442;-61
2021/08/27 04:05:27;;;;;;;7.80;4.95;;;;;;;16.22;99.63;99860.88;5107667;28;20031;-62
2021/08/27 04:07:52;;;;;;;;;;;;;;;16.23;99.54;99854.44;5090513;28;20061;-62
2021/08/27 04:10:20;;;;;;;8.68;5.05;;;;;;;16.23;99.29;99856.31;5108239;28;19920;-62
2021/08/27 04:12:46;;;;;;;9.68;5.63;;;;;;;16.21;99.41;99858.34;5108020;28;20032;-62
2021/08/27 04:15:15;;;;;;;5.95;4.20;;;;;;;16.17;99.53;99871.41;5107945;28;20471;-62
2021/08/27 04:17:41;;;;;;;6.97;4.85;;;;;;;16.25;97.78;99881.34;5107887;28;20097;-62
2021/08/27 04:20:10;;;;;;;7.45;4.35;;;;;;;16.21;97.58;99890.81;5107918;28;20368;-63
2021/08/27 04:22:36;;;;;;;6.60;4.35;;;;;;;16.12;98.70;99887.34;5108249;28;20015;-63
2021/08/27 04:25:02;;;;;;;8.02;4.82;;;;;;;16.10;99.61;99883.13;5107921;28;20068;-63
2021/08/27 04:27:28;;;;;;;8.60;5.28;;;;;;;16.05;100.00;99877.44;5108208;28;20036;-61
2021/08/27 04:29:54;;;;;;;6.40;4.85;;;;;;;16.05;100.00;99869.31;5089644;28;20341;-61
2021/08/27 04:32:20;;;;;;;7.47;5.03;;;;;;;16.06;100.00;99887.22;5107776;28;20028;-62
2021/08/27 04:34:46;;;;;;;7.75;5.53;;;;;;;16.09;100.00;99897.69;5107677;28;20023;-62
2021/08/27 04:37:11;;;;;;;6.38;4.05;;;;;;;16.04;100.00;99909.03;5107702;28;20036;-63
2021/08/27 04:39:37;;;;;;;7.43;4.70;;;;;;;15.97;100.00;99918.91;5107831;28;20523;-63
2021/08/27 04:42:04;;;;;;;7.25;4.53;;;;;;;16.03;99.85;99931.72;5107744;28;20023;-62
2021/08/27 04:44:30;;;;;;;8.73;5.38;;;;;;;16.01;100.00;99924.78;5089982;28;20119;-63
2021/08/27 04:46:56;;;;;;;6.07;4.47;;;;;;;15.94;100.00;99887.63;5107814;28;20127;-63
2021/08/27 04:49:22;;;;;;;8.70;4.50;;;;;;;15.97;100.00;99861.25;5089341;28;20136;-63
2021/08/27 04:51:47;;;;;;;8.18;4.65;;;;;;;16.03;100.00;99853.28;5107467;28;20028;-62
2021/08/27 04:54:13;;;;;;;7.65;5.03;;;;;;;16.09;100.00;99862.50;5107742;28;20051;-63
2021/08/27 04:56:38;;;;;;;7.07;4.45;;;;;;;16.02;100.00;99843.44;5107829;28;20020;-63
2021/08/27 04:59:04;;;;;;;6.60;4.50;;;;;;;16.09;100.00;99840.88;5107620;28;20020;-63
2021/08/27 05:01:29;;;;;;;6.20;4.70;;;;;;;16.15;100.00;99840.97;5107948;28;20087;-63
2021/08/27 05:03:55;;;;;;;9.93;4.60;;;;;;;16.18;100.00;99842.50;5107448;28;20039;-63
2021/08/27 05:06:20;;;;;;;7.03;4.68;;;;;;;16.20;100.00;99845.84;5107606;28;20088;-63
2021/08/27 05:08:46;;;;;;;7.22;4.65;;;;;;;16.21;100.00;99852.94;5108100;28;20036;-62
2021/08/27 05:11:11;;;;;;;6.28;4.95;;;;;;;16.19;100.00;99863.97;5111573;28;20368;-62
2021/08/27 05:13:37;;;;;;;5.95;4.60;;;;;;;16.20;99.79;99879.16;5111868;28;20471;-63
2021/08/27 05:16:03;;;;;;;7.80;4.90;;;;;;;16.20;99.18;99891.84;5111393;28;20031;-63
2021/08/27 05:18:29;;;;;;;7.75;4.78;;;;;;;16.16;99.53;99883.25;5111357;28;20107;-63
2021/08/27 05:20:56;;;;;;;16.80;12.10;;;;;;;16.10;100.00;99888.53;5111421;28;20028;-61
2021/08/27 05:23:22;;;;;;;14.55;8.70;;;;;;;16.11;100.00;99892.91;5111126;28;20095;-61
2021/08/27 05:25:48;;;;;;;8.38;6.75;;;;;;;16.08;100.00;99890.56;5111191;28;20364;-61
2021/08/27 05:28:13;;;;;;;8.75;5.95;;;;;;;16.10;100.00;99888.53;5108650;28;20026;-61
2021/08/27 05:30:39;;;;;;;10.25;5.65;;;;;;;16.06;100.00;99888.06;5110754;28;20023;-62
2021/08/27 05:33:04;;;;;;;7.43;4.90;;;;;;;16.04;100.00;99895.53;5111017;28;20750;-63
2021/08/27 05:35:30;;;;;;;9.70;6.63;;;;;;;16.00;100.00;99905.03;5111007;28;20050;-62
2021/08/27 05:37:55;;;;;;;8.98;5.13;;;;;;;16.04;100.00;99921.72;5111106;28;20039;-63
2021/08/27 05:40:21;;;;;;;6.78;5.07;;;;;;;15.99;100.00;99910.59;5092596;28;20483;-63
2021/08/27 05:42:46;;;;;;;7.03;4.97;;;;;;;15.90;100.00;99899.81;5110829;28;20408;-62
2021/08/27 05:45:14;;;;;;;9.55;5.32;;;;;;;15.92;100.00;99893.41;5110882;28;20080;-63
2021/08/27 05:47:39;;;;;;;11.02;7.15;;;;;;;15.91;100.00;99892.56;5110392;28;20517;-62
2021/08/27 05:50:06;;;;;;;9.30;5.93;;;;;;;15.92;100.00;99909.66;5110638;28;20129;-63
2021/08/27 05:52:31;;;;;;;10.88;6.65;;;;;;;15.90;100.00;99913.34;5110684;28;20418;-61
2021/08/27 05:54:57;;;;;;;8.32;6.15;;;;;;;15.86;100.00;99909.31;5110497;28;20150;-62
2021/08/27 05:57:22;;;;;;;9.52;4.78;;;;;;;15.92;100.00;99924.00;5110637;28;20026;-62
2021/08/27 05:59:48;;;;;;;7.47;4.68;;;;;;;15.93;100.00;99926.50;5110767;28;20019;-62
2021/08/27 06:02:13;;;;;;;7.55;4.85;;;;;;;15.92;100.00;99926.69;5110220;28;20100;-63
2021/08/27 06:04:41;;;;;;;7.57;4.65;;;;;;;15.92;100.00;99932.09;5110464;28;20016;-62
2021/08/27 06:07:07;;;;;;;7.57;4.55;;;;;;;15.86;100.00;99933.66;5110473;28;20103;-63
2021/08/27 06:09:32;;;;;;;7.28;4.97;;;;;;;15.89;100.00;99938.72;5110292;28;20139;-63
2021/08/27 06:11:58;;;;;;;9.18;4.60;;;;;;;15.90;100.00;99955.81;5110000;28;20027;-63
2021/08/27 06:14:23;;;;;;;7.32;4.60;;;;;;;15.90;100.00;99959.31;5110155;28;20039;-63
2021/08/27 06:16:49;;;;;;;5.47;4.43;;;;;;;15.88;100.00;99961.38;5109836;28;20095;-64
2021/08/27 06:19:14;;;;;;;7.55;4.78;;;;;;;15.83;100.00;99952.94;5109799;28;20024;-64
2021/08/27 06:21:40;;;;;;;10.35;5.75;;;;;;;15.78;100.00;99940.97;5108849;28;20024;-64
2021/08/27 06:24:06;;;;;;;7.55;5.07;;;;;;;15.74;100.00;99935.06;5110479;28;20101;-65
2021/08/27 06:26:32;;;;;;;8.40;5.40;;;;;;;15.76;100.00;99930.34;5110017;28;20028;-63
2021/08/27 06:29:00;;;;;;;10.90;6.13;;;;;;;15.76;100.00;99934.91;5109882;28;20031;-62
2021/08/27 06:31:27;;;;;;;8.35;5.82;;;;;;;15.82;100.00;99956.69;5091247;28;20076;-62
2021/08/27 06:33:53;;;;;;;9.27;6.53;;;;;;;15.80;100.00;99950.59;5107482;28;20032;-62
2021/08/27 06:36:19;;;;;;;8.93;5.28;;;;;;;15.73;100.00;99944.22;5109729;28;20034;-62
2021/08/27 06:38:44;;;;;;;6.43;4.85;;;;;;;15.79;100.00;99948.06;5109631;28;20085;-62
2021/08/27 06:41:10;;;;;;;9.50;6.32;;;;;;;15.81;100.00;99951.44;5110452;28;20039;-63
2021/08/27 06:43:39;;;;;;;9.07;5.25;;;;;;;15.84;100.00;99970.03;5109807;28;20037;-62
2021/08/27 06:46:12;;;;;;;10.93;5.78;;;;;;;15.85;100.00;99977.09;5109310;28;20059;-63
2021/08/27 06:48:39;;;;;;;9.23;6.25;;;;;;;15.81;100.00;99960.38;5109602;28;20113;-62
2021/08/27 06:51:05;;;;;;;8.82;5.63;;;;;;;15.89;100.00;99983.84;5103485;28;20063;-62
2021/08/27 06:53:31;;;;;;;9.40;5.88;;;;;;;15.91;100.00;99989.94;5108201;28;20427;-63
2021/08/27 06:55:56;;;;;;;10.85;6.18;;;;;;;15.88;100.00;99979.47;5090004;28;20078;-62
2021/08/27 06:58:22;;;;;;;13.00;6.18;;;;;;;15.92;100.00;99977.25;5108143;28;20560;-62
2021/08/27 07:00:49;;;;;;;9.13;5.78;;;;;;;15.93;100.00;99970.81;5107518;28;20049;-62
2021/08/27 07:03:14;;;;;;;9.32;5.70;;;;;;;15.88;100.00;99963.25;5109072;28;20024;-62
2021/08/27 07:05:40;;;;;;;8.55;5.88;;;;;;;15.86;100.00;99960.72;5109573;28;20020;-63
2021/08/27 07:08:06;;;;;;;9.90;6.43;;;;;;;15.85;100.00;99956.31;5109056;28;20653;-62
2021/08/27 07:10:32;;;;;;;10.40;5.82;;;;;;;15.96;100.00;99967.78;5109683;28;20100;-63
2021/08/27 07:12:57;;;;;;;11.57;5.95;;;;;;;15.94;100.00;99973.34;5108705;28;20032;-63
2021/08/27 07:15:24;;;;;;;8.80;5.63;;;;;;;15.99;100.00;99983.66;5108981;28;20055;-64
2021/08/27 07:17:50;;;;;;;9.77;5.55;;;;;;;16.01;100.00;99981.59;5107854;28;20471;-62
2021/08/27 07:20:17;;;;;;;11.88;6.93;;;;;;;16.03;100.00;99977.72;5107762;28;20050;-63
2021/08/27 07:22:43;;;;;;;8.40;5.93;;;;;;;16.06;100.00;99984.63;5108510;28;20426;-63
2021/08/27 07:25:10;;;;;;;11.77;6.60;;;;;;;16.09;100.00;99984.25;5108893;28;20111;-62
2021/08/27 07:27:35;;;;;;;9.55;6.13;;;;;;;16.07;100.00;99983.59;5108127;28;20387;-62
2021/08/27 07:30:01;;;;;;;11.57;6.63;;;;;;;16.08;100.00;99991.53;5107728;28;20032;-62
2021/08/27 07:32:26;;;;;;;8.75;6.40;;;;;;;16.08;100.00;99996.09;5108035;28;20098;-62
2021/08/27 07:34:52;;;;;;;9.68;6.30;;;;;;;16.05;100.00;100001.88;5108507;28;20030;-63
2021/08/27 07:37:18;;;;;;;10.00;5.88;;;;;;;15.99;100.00;99992.59;5108694;28;20053;-62
2021/08/27 07:39:43;;;;;;;10.98;5.97;;;;;;;16.03;100.00;100023.69;5108299;28;20015;-62
2021/08/27 07:42:10;;;;;;;12.85;6.00;;;;;;;16.03;100.00;100020.13;5108387;28;20487;-62
2021/08/27 07:44:36;;;;;;;10.43;6.32;;;;;;;15.91;100.00;100003.47;5108211;28;20533;-62
2021/08/27 07:47:03;;;;;;;11.50;6.20;;;;;;;15.95;100.00;100018.31;5107809;28;20120;-62
2021/08/27 07:49:28;;;;;;;9.02;6.18;;;;;;;15.89;100.00;100017.16;5108351;28;20034;-62
2021/08/27 07:51:56;;;;;;;9.25;6.03;;;;;;;15.90;100.00;100024.25;5107882;28;20028;-63
2021/08/27 07:54:22;;;;;;;9.32;5.80;;;;;;;15.87;100.00;100016.47;5108213;28;20015;-62
2021/08/27 07:56:47;;;;;;;8.48;6.45;;;;;;;15.90;100.00;100018.00;5107676;28;20035;-62
2021/08/27 07:59:13;;;;;;;12.70;7.22;;;;;;;15.93;100.00;100019.50;5108104;28;20031;-65
2021/08/27 08:01:38;;;;;;;11.60;5.95;;;;;;;15.93;100.00;100018.47;5108406;28;20043;-65
2021/08/27 08:04:05;;;;;;;8.82;6.28;;;;;;;15.94;100.00;100022.88;5107637;28;20239;-65
2021/08/27 08:06:35;;;;;;;13.52;5.85;;;;;;;15.94;100.00;100009.34;5108004;28;20065;-65
2021/08/27 08:09:02;;;;;;;7.80;6.22;;;;;;;15.99;100.00;100029.63;5107633;28;20102;-65
2021/08/27 08:11:28;;;;;;;8.20;5.80;;;;;;;16.02;100.00;100027.41;5107926;28;20250;-61
2021/08/27 08:13:53;;;;;;;9.52;5.97;;;;;;;16.05;100.00;100012.69;5107851;28;20080;-61
2021/08/27 08:16:19;;;;;;;10.93;6.18;;;;;;;16.00;100.00;100015.94;5107858;28;20031;-61
2021/08/27 08:18:44;;;;;;;9.70;5.65;;;;;;;16.11;100.00;100041.72;5107900;28;20088;-61
2021/08/27 08:21:10;;;;;;;11.55;6.13;;;;;;;16.10;100.00;100038.19;5108041;28;20538;-61
2021/08/27 08:23:35;;;;;;;9.38;5.97;;;;;;;16.13;100.00;100042.41;5108070;28;20383;-61
2021/08/27 08:26:02;;;;;;;10.73;6.38;;;;;;;16.15;100.00;100029.56;5107546;28;20119;-61
2021/08/27 08:28:27;;;;;;;10.23;6.45;;;;;;;16.18;100.00;100021.09;5107661;28;20368;-62
2021/08/27 08:30:53;;;;;;;10.00;6.55;;;;;;;16.19;100.00;100023.63;5107671;28;20057;-61
2021/08/27 08:33:19;;;;;;;8.27;6.22;;;;;;;16.20;100.00;100037.97;5107383;28;20071;-61
2021/08/27 08:35:45;;;;;;;8.68;6.82;;;;;;;16.19;100.00;100041.69;5107769;28;20026;-62
2021/08/27 08:38:11;;;;;;;13.25;7.43;;;;;;;16.21;100.00;100037.78;5107809;28;20471;-62
2021/08/27 08:40:41;;;;;;;10.85;7.07;;;;;;;16.26;100.00;100043.53;5107680;28;20030;-61
2021/08/27 08:43:08;;;;;;;9.98;7.00;;;;;;;16.31;100.00;100053.81;5107633;28;20525;-62
2021/08/27 08:45:35;;;;;;;10.98;6.63;;;;;;;16.35;100.00;100066.78;5093051;28;20047;-61
2021/08/27 08:48:03;;;;;;;9.45;6.43;;;;;;;16.38;100.00;100061.03;5111670;28;20047;-62
2021/08/27 08:50:30;;;;;;;7.70;6.40;;;;;;;16.40;100.00;100059.00;5111661;28;20031;-62
2021/08/27 08:52:56;;;;;;;10.60;6.68;;;;;;;16.43;100.00;100053.25;5111099;28;20020;-62
2021/08/27 08:55:22;;;;;;;10.48;6.45;;;;;;;16.50;100.00;100046.09;5111607;28;20422;-61
2021/08/27 08:57:47;;;;;;;8.85;6.20;;;;;;;16.48;100.00;100040.03;5111454;28;20032;-62
2021/08/27 09:00:13;;;;;;;9.93;6.18;;;;;;;16.57;100.00;100038.94;5111427;28;20016;-62
2021/08/27 09:02:38;;;;;;;13.07;7.22;;;;;;;16.61;100.00;100047.56;5111592;28;20360;-61
2021/08/27 09:05:05;;;;;;;12.55;8.10;;;;;;;16.63;100.00;100037.38;5111210;28;20027;-61
2021/08/27 09:07:30;;;;;;;11.20;6.70;;;;;;;16.68;100.00;100040.41;5092854;28;20448;-62
2021/08/27 09:09:58;;;;;;;10.20;6.80;;;;;;;16.70;100.00;100041.09;5111029;28;20028;-62
2021/08/27 09:12:26;;;;;;;9.60;6.95;;;;;;;16.75;100.00;100054.91;5111198;28;20031;-62
2021/08/27 09:14:59;;;;;;;9.82;7.25;;;;;;;16.78;100.00;100046.44;5111040;28;20080;-62
2021/08/27 09:17:51;;;;;;;11.50;7.05;;;;;;;16.81;100.00;100038.78;5110969;28;20035;-62
2021/08/27 09:20:19;;;;;;;10.40;7.63;;;;;;;16.82;100.00;100045.03;5106751;28;20491;-62
2021/08/27 09:22:56;;;;;;;11.45;6.95;;;;;;;16.84;100.00;100048.41;5111488;28;20459;-62
2021/08/27 09:25:31;;;;;;;10.95;7.63;;;;;;;16.83;100.00;100031.31;5111294;28;20024;-62
2021/08/27 09:28:15;;;;;;;14.18;8.40;;;;;;;16.80;100.00;100020.84;5110970;28;20035;-62
2021/08/27 09:30:47;;;;;;;11.45;8.63;;;;;;;16.90;100.00;100036.84;5111514;28;20062;-62
2021/08/27 09:33:16;;;;;;;13.23;9.07;;;;;;;16.93;100.00;100039.19;5110804;28;20050;-62
2021/08/27 09:36:03;;;;;;;14.18;9.18;;;;;;;16.94;100.00;100032.75;5111075;28;20089;-62
2021/08/27 09:38:30;;;;;;;13.60;9.45;;;;;;;16.96;100.00;100034.25;5110582;28;20110;-62
2021/08/27 09:41:02;;;;;;;11.65;9.07;;;;;;;17.00;100.00;100034.75;5110327;28;20034;-62
2021/08/27 09:43:28;;;;;;;12.45;9.18;;;;;;;17.06;100.00;100034.00;5110499;28;20106;-62
2021/08/27 09:45:55;;;;;;;12.55;8.95;;;;;;;17.06;100.00;100036.72;5110310;28;20552;-62
2021/08/27 09:48:21;;;;;;;12.70;8.52;;;;;;;17.14;100.00;100055.59;5110839;28;20050;-62
2021/08/27 09:50:51;;;;;;;12.35;8.35;;;;;;;17.19;100.00;100051.31;5092155;28;20023;-62
2021/08/27 09:53:18;;;;;;;9.70;7.93;;;;;;;17.24;100.00;100048.06;5110183;28;20016;-62
2021/08/27 09:56:00;;;;;;;10.00;7.32;;;;;;;17.29;100.00;100056.50;5110329;28;20080;-62
2021/08/27 09:58:27;;;;;;;9.55;6.97;;;;;;;17.35;100.00;100064.72;5110453;28;20479;-62
2021/08/27 10:01:06;;;;;;;9.18;6.72;;;;;;;17.34;100.00;100049.50;5110036;28;20028;-63
2021/08/27 10:03:32;;;;;;;7.93;5.88;;;;;;;17.42;99.63;100056.69;5110108;28;20050;-63
2021/08/27 10:05:58;;;;;;;8.40;6.43;;;;;;;17.43;98.91;100056.56;5109885;28;20027;-63
2021/08/27 10:08:28;;;;;;;7.78;6.40;;;;;;;17.51;98.32;100070.00;5110109;28;20421;-63
2021/08/27 10:11:14;;;;;;;7.90;5.97;;;;;;;17.56;98.46;100067.59;5110007;28;20429;-62
2021/08/27 10:13:40;;;;;;;8.43;5.63;;;;;;;17.65;97.71;100076.50;5110342;28;20038;-63
2021/08/27 10:16:06;;;;;;;7.75;5.18;;;;;;;17.69;97.05;100066.94;5109804;28;20475;-61
2021/08/27 10:18:33;;;;;;;8.15;5.30;;;;;;;17.81;96.23;100068.19;5109937;28;20408;-61
2021/08/27 10:20:58;;;;;;;7.68;5.70;;;;;;;17.89;96.61;100065.34;5109867;28;20364;-62
2021/08/27 10:23:24;;;;;;;7.15;5.07;;;;;;;17.99;97.10;100065.91;5109701;28;20072;-63
2021/08/27 10:25:52;;;;;;;8.30;5.28;;;;;;;18.04;95.53;100072.50;5109788;28;20100;-62
2021/08/27 10:28:18;;;;;;;6.20;4.93;;;;;;;18.15;94.12;100064.88;5109778;28;20597;-62
2021/08/27 10:30:58;;;;;;;5.38;4.28;;;;;;;18.21;92.48;100054.09;5109969;28;20072;-62
2021/08/27 10:33:39;;;;;;;6.80;4.80;;;;;;;18.31;91.96;100057.34;5109843;28;20467;-62
2021/08/27 10:36:05;;;;;;;7.53;4.50;;;;;;;18.40;91.11;100047.25;5109456;28;20418;-62
2021/08/27 10:38:41;;;;;;;5.50;3.67;;;;;;;18.53;90.10;100031.09;5109492;28;20027;-62
2021/08/27 10:41:18;;;;;;;6.97;4.20;;;;;;;18.67;89.19;100032.94;5109510;28;20340;-62
2021/08/27 10:43:57;;;;;;;5.13;3.33;;;;;;;18.76;88.10;100020.94;5109746;28;20031;-62
2021/08/27 10:46:48;;;;;;;4.35;3.35;;;;;;;18.93;86.66;100025.88;5109362;28;20032;-63
2021/08/27 10:49:21;;;;;;;5.32;4.00;;;;;;;19.03;85.27;100028.28;5109319;28;20032;-62
2021/08/27 10:51:50;;;;;;;5.47;3.40;;;;;;;19.17;85.16;100046.38;5109326;28;20032;-62
2021/08/27 10:54:17;;;;;;;4.45;3.80;;;;;;;19.29;83.98;100056.56;5109308;28;20052;-63
2021/08/27 10:56:53;;;;;;;5.55;3.67;;;;;;;19.38;83.42;100052.66;5109469;28;20035;-63
2021/08/27 10:59:21;;;;;;;4.97;3.78;;;;;;;19.44;83.27;100049.13;5109100;28;20031;-64
2021/08/27 11:02:00;;;;;;;5.85;3.47;;;;;;;19.51;82.81;100049.22;5109207;28;20093;-63
2021/08/27 11:04:29;;;;;;;5.63;3.60;;;;;;;19.54;81.27;100041.47;5108824;28;20031;-63
2021/08/27 11:07:01;;;;;;;4.80;3.53;;;;;;;19.56;80.93;100030.38;5108255;28;20027;-63
2021/08/27 11:09:35;;;;;;;6.30;4.10;;;;;;;19.55;79.84;100026.00;5108783;28;20057;-63
2021/08/27 11:12:21;;;;;;;5.63;3.80;;;;;;;19.68;79.11;100035.09;5108534;28;20471;-63
2021/08/27 11:14:51;;;;;;;5.95;4.30;;;;;;;19.78;78.12;100029.28;5108838;28;20031;-62
2021/08/27 11:17:17;;;;;;;8.57;3.65;;;;;;;19.83;78.97;100022.19;5108563;28;20030;-63
2021/08/27 11:19:58;;;;;;;6.03;3.90;;;;;;;19.84;79.32;100025.75;5109153;28;20023;-63
2021/08/27 11:22:31;;;;;;;5.75;3.78;;;;;;;19.84;78.90;100020.31;5109072;28;20054;-63
2021/08/27 11:25:10;;;;;;;5.78;4.35;;;;;;;19.84;78.54;100007.56;5090102;28;20376;-63
2021/08/27 11:27:37;;;;;;;5.28;3.53;;;;;;;19.86;79.14;100010.91;5108760;28;20882;-62
2021/08/27 11:30:27;;;;;;;5.70;3.75;;;;;;;19.89;78.25;100007.78;5108356;28;20039;-63